Time;durP1;ratioP1;P1;durP2;ratioP2;P2;SDS_P1;SDS_P2;PMS_P1;PMS_P2;Temp;Humidity;BMP_temperature;BMP_pressure;BME280_temperature;BME280_humidity;BME280_pressure;Samples;Min_cycle;Max_cycle;Signal;HPM_P1;HPM_P2
2022/09/27 00:00:41;;;;;;;21.70;16.30;;;;;;;12.49;68.16;97801.13;224242;1236;139401;-63
2022/09/27 00:06:17;;;;;;;23.20;15.70;;;;;;;12.49;68.17;97795.05;224339;1231;250590;-63
2022/09/27 00:11:29;;;;;;;23.80;16.30;;;;;;;12.51;68.37;97789.35;224665;1233;140104;-63
2022/09/27 00:16:38;;;;;;;22.30;16.10;;;;;;;12.56;68.34;97784.88;224653;1233;140337;-62
2022/09/27 00:21:43;;;;;;;32.60;15.20;;;;;;;12.58;68.62;97784.48;224218;1237;141597;-62
2022/09/27 00:26:48;;;;;;;23.40;15.50;;;;;;;12.54;68.47;97778.55;224617;1236;139678;-62
2022/09/27 00:31:52;;;;;;;26.30;14.40;;;;;;;12.49;68.48;97767.11;224911;1240;139036;-62
2022/09/27 00:36:57;;;;;;;11.70;10.50;;;;;;;12.47;68.49;97761.86;224934;1233;140066;-62
2022/09/27 00:42:01;;;;;;;12.40;10.80;;;;;;;12.47;68.33;97758.80;224237;1240;138787;-61
2022/09/27 00:47:24;;;;;;;13.20;11.30;;;;;;;12.44;68.21;97756.05;224407;1236;140949;-62
2022/09/27 00:52:35;;;;;;;12.90;11.00;;;;;;;12.42;68.32;97749.85;224605;1232;140138;-61
2022/09/27 00:57:42;;;;;;;16.40;12.60;;;;;;;12.35;67.87;97745.63;224496;1236;139756;-61
2022/09/27 01:02:50;;;;;;;17.10;11.50;;;;;;;12.25;67.69;97748.46;224466;1237;138616;-64
2022/09/27 01:07:55;;;;;;;13.90;10.60;;;;;;;12.16;67.90;97741.63;224159;1236;139784;-63
2022/09/27 01:13:18;;;;;;;12.00;10.80;;;;;;;12.07;67.67;97728.40;224120;1236;140228;-63
2022/09/27 01:18:36;;;;;;;14.20;10.30;;;;;;;11.97;67.71;97722.54;224356;1236;138945;-64
2022/09/27 01:24:11;;;;;;;12.20;9.60;;;;;;;11.89;67.95;97716.34;223975;1235;139148;-63
2022/09/27 01:30:01;;;;;;;11.50;10.30;;;;;;;11.88;67.81;97712.34;224092;1236;139332;-64
2022/09/27 01:35:20;;;;;;;13.90;9.90;;;;;;;11.88;67.95;97702.34;224246;1236;139490;-63
2022/09/27 01:40:44;;;;;;;12.80;10.00;;;;;;;11.86;67.65;97693.63;224368;1233;139438;-64
2022/09/27 01:46:14;;;;;;;13.00;9.70;;;;;;;11.83;67.91;97693.19;224099;1233;139111;-62
2022/09/27 01:51:44;;;;;;;10.90;9.30;;;;;;;11.81;68.16;97691.59;224222;1234;138534;-63
2022/09/27 01:56:54;;;;;;;12.50;10.10;;;;;;;11.74;68.20;97684.36;223904;1236;138980;-63
2022/09/27 02:02:07;;;;;;;12.30;9.70;;;;;;;11.68;67.86;97680.52;224342;1231;139144;-62
2022/09/27 02:07:47;;;;;;;11.20;8.90;;;;;;;11.62;67.87;97671.78;224351;1227;139218;-63
2022/09/27 02:13:19;;;;;;;9.60;8.20;;;;;;;11.62;68.10;97666.42;224507;1233;140380;-62
2022/09/27 02:18:35;;;;;;;10.70;9.00;;;;;;;11.59;67.67;97669.02;224755;1233;138501;-61
2022/09/27 02:23:52;;;;;;;11.00;9.10;;;;;;;11.50;67.47;97664.82;224114;1227;139696;-62
2022/09/27 02:29:06;;;;;;;10.10;8.40;;;;;;;11.40;67.54;97660.73;224392;1236;139579;-62
2022/09/27 02:34:27;;;;;;;9.70;8.00;;;;;;;11.29;67.40;97656.35;224387;1234;138964;-61
2022/09/27 02:39:30;;;;;;;10.10;8.10;;;;;;;11.19;67.32;97652.10;224376;1234;138838;-61
2022/09/27 02:44:40;;;;;;;12.90;8.10;;;;;;;11.13;67.37;97649.95;224453;1227;138515;-61
2022/09/27 02:50:13;;;;;;;9.60;8.20;;;;;;;11.08;67.44;97645.44;224457;1234;139345;-62
2022/09/27 02:56:13;;;;;;;10.70;8.40;;;;;;;11.03;67.42;97647.45;224258;1227;138753;-61
2022/09/27 03:02:02;;;;;;;10.80;8.30;;;;;;;10.99;67.35;97643.86;224401;1238;139281;-61
2022/09/27 03:07:13;;;;;;;9.60;8.50;;;;;;;10.98;67.88;97635.41;224359;1234;139025;-61
2022/09/27 03:12:24;;;;;;;12.40;8.90;;;;;;;11.00;67.78;97628.73;224312;1235;138368;-64
2022/09/27 03:17:30;;;;;;;9.80;8.20;;;;;;;10.97;67.66;97621.70;224175;1236;138709;-61
2022/09/27 03:23:03;;;;;;;12.60;7.60;;;;;;;10.94;67.86;97617.17;224249;1240;138872;-60
2022/09/27 03:28:09;;;;;;;8.10;7.20;;;;;;;10.93;67.85;97616.02;224239;1236;140379;-61
2022/09/27 03:33:14;;;;;;;18.80;7.20;;;;;;;10.97;68.13;97624.20;224552;1235;138843;-61
2022/09/27 03:38:24;;;;;;;8.80;7.30;;;;;;;10.99;67.99;97634.98;224884;1233;139430;-64
2022/09/27 03:43:30;;;;;;;9.40;7.50;;;;;;;10.96;67.86;97626.09;224431;1231;138867;-62
2022/09/27 03:48:38;;;;;;;9.90;7.70;;;;;;;10.96;68.32;97626.77;224276;1229;140061;-62
2022/09/27 03:53:44;;;;;;;9.40;7.20;;;;;;;10.95;68.36;97617.11;224410;1236;138674;-62
2022/09/27 03:58:47;;;;;;;9.00;7.30;;;;;;;10.91;68.00;97606.82;224739;1233;138395;-62
2022/09/27 04:03:53;;;;;;;;;;;;;;;10.86;68.07;97596.52;224305;1236;139093;-62
2022/09/27 04:09:07;;;;;;;9.30;7.70;;;;;;;10.83;68.21;97595.57;224458;1234;125942;-62
2022/09/27 04:14:32;;;;;;;12.20;7.10;;;;;;;10.85;68.33;97606.27;224500;1234;140038;-62
2022/09/27 04:19:56;;;;;;;18.10;8.60;;;;;;;10.83;68.13;97598.06;224290;1233;139845;-61
2022/09/27 04:25:00;;;;;;;12.90;7.80;;;;;;;10.80;67.85;97595.69;224545;1233;138985;-62
2022/09/27 04:30:14;;;;;;;10.50;7.30;;;;;;;10.75;67.88;97596.46;224358;1236;139269;-62
2022/09/27 04:41:01;;;;;;;10.40;7.20;;;;;;;10.64;68.32;97586.00;224357;1237;244339;-60
2022/09/27 04:46:08;;;;;;;10.80;7.40;;;;;;;10.59;68.25;97587.72;224272;1236;139562;-63
2022/09/27 04:51:16;;;;;;;12.10;8.20;;;;;;;10.57;68.23;97584.17;224376;1230;141460;-62
2022/09/27 04:56:20;;;;;;;11.00;7.10;;;;;;;10.58;68.18;97587.81;224484;1234;139226;-62
2022/09/27 05:01:26;;;;;;;16.20;9.00;;;;;;;10.56;67.93;97596.86;224654;1233;139000;-64
2022/09/27 05:06:34;;;;;;;13.50;8.40;;;;;;;10.56;68.25;97590.46;224394;1230;139325;-65
2022/09/27 05:11:43;;;;;;;12.00;8.90;;;;;;;10.53;68.20;97587.49;224381;1234;138555;-67
2022/09/27 05:17:07;;;;;;;14.00;8.80;;;;;;;10.56;68.50;97576.27;224679;1234;138817;-65
2022/09/27 05:22:39;;;;;;;15.10;9.00;;;;;;;10.59;68.49;97571.95;224404;1234;139695;-63
2022/09/27 05:27:44;;;;;;;13.60;8.70;;;;;;;10.63;68.46;97565.33;223995;1237;139611;-63
2022/09/27 05:32:50;;;;;;;15.00;9.30;;;;;;;10.71;68.49;97560.11;224742;1237;139691;-63
2022/09/27 05:38:01;;;;;;;14.70;10.00;;;;;;;10.80;68.47;97551.16;224189;1237;251113;-63
2022/09/27 05:43:08;;;;;;;37.20;15.00;;;;;;;10.85;68.24;97553.69;224294;1240;139208;-63
2022/09/27 05:48:13;;;;;;;35.90;17.20;;;;;;;10.83;67.89;97555.30;224201;1235;139449;-63
2022/09/27 05:53:31;;;;;;;54.00;28.90;;;;;;;10.81;68.17;97556.42;224700;1238;138927;-69
2022/09/27 05:58:36;;;;;;;28.60;15.00;;;;;;;10.82;68.25;97550.92;224252;1236;139084;-66
2022/09/27 06:03:53;;;;;;;27.60;14.20;;;;;;;10.81;68.18;97549.99;224409;1234;139568;-68
2022/09/27 06:09:16;;;;;;;28.50;14.10;;;;;;;10.83;68.40;97547.86;227643;1233;138860;-68
2022/09/27 06:14:21;;;;;;;21.60;12.10;;;;;;;10.90;68.63;97543.00;226375;1243;139572;-69
2022/09/27 06:19:34;;;;;;;23.30;11.80;;;;;;;11.01;68.31;97546.67;226254;1250;139209;-71
2022/09/27 06:24:37;;;;;;;17.10;10.60;;;;;;;11.10;68.77;97549.95;226427;1245;138809;-67
2022/09/27 06:29:45;;;;;;;22.40;10.80;;;;;;;11.23;69.09;97548.65;226246;1248;139450;-69
2022/09/27 06:34:58;;;;;;;20.10;12.40;;;;;;;11.39;68.85;97558.77;226189;1244;138931;-67
2022/09/27 06:40:02;;;;;;;16.40;10.00;;;;;;;11.48;68.74;97558.50;227442;1240;138873;-65
2022/09/27 06:45:23;;;;;;;15.00;9.90;;;;;;;11.53;69.08;97559.39;226532;1238;139059;-64
2022/09/27 06:50:56;;;;;;;15.20;9.10;;;;;;;11.64;68.68;97551.68;227419;1230;139904;-65
2022/09/27 06:56:00;;;;;;;13.60;9.40;;;;;;;11.76;68.92;97546.29;226475;1238;139224;-64
2022/09/27 07:01:16;;;;;;;14.20;9.20;;;;;;;11.90;69.11;97549.36;226218;1241;139389;-64
2022/09/27 07:06:37;;;;;;;12.80;9.90;;;;;;;12.04;69.09;97553.42;226393;1241;139167;-65
2022/09/27 07:11:54;;;;;;;15.90;11.20;;;;;;;12.16;69.02;97547.68;226464;1250;139140;-66
2022/09/27 07:16:57;;;;;;;9.50;11.30;;;;;;;12.26;69.10;97541.55;226417;1244;139024;-66
2022/09/27 07:22:01;;;;;;;19.00;11.70;;;;;;;12.35;69.05;97537.19;227171;1232;223969;-67
2022/09/27 07:27:05;;;;;;;16.20;10.70;;;;;;;12.48;69.16;97534.51;226421;1245;139858;-66
2022/09/27 07:32:08;;;;;;;14.90;10.90;;;;;;;12.64;69.22;97539.08;227506;1232;140379;-66
2022/09/27 07:37:12;;;;;;;17.50;12.30;;;;;;;12.77;69.29;97540.00;226496;1241;138889;-67
2022/09/27 07:42:15;;;;;;;17.60;12.10;;;;;;;12.89;69.28;97535.26;227334;1234;140926;-67
2022/09/27 07:47:24;;;;;;;15.70;11.90;;;;;;;13.01;69.25;97529.30;226335;1241;139147;-64
2022/09/27 07:52:50;;;;;;;17.10;12.50;;;;;;;13.15;69.35;97525.83;226243;1252;139693;-64
2022/09/27 07:58:20;;;;;;;16.00;10.90;;;;;;;13.28;69.23;97519.40;227114;1233;140156;-66
2022/09/27 08:03:25;;;;;;;14.80;10.40;;;;;;;13.46;69.36;97516.65;226422;1243;139553;-66
2022/09/27 08:08:29;;;;;;;15.00;10.20;;;;;;;13.68;69.56;97513.92;227449;1228;141586;-67
2022/09/27 08:13:33;;;;;;;15.50;9.70;;;;;;;13.90;69.83;97517.90;226392;1240;139652;-66
2022/09/27 08:18:37;;;;;;;15.40;11.00;;;;;;;14.13;69.95;97512.73;226395;1240;141127;-66
2022/09/27 08:24:03;;;;;;;;;;;;;;;14.39;69.99;97510.62;226510;1239;139093;-66
2022/09/27 08:29:12;;;;;;;23.00;11.80;;;;;;;14.55;69.65;97514.48;226207;1244;125276;-66
2022/09/27 08:34:23;;;;;;;21.40;12.70;;;;;;;14.62;69.16;97506.86;226162;1237;139168;-66
2022/09/27 08:39:27;;;;;;;29.10;15.00;;;;;;;14.75;68.89;97498.13;226342;1241;139896;-66
2022/09/27 08:44:59;;;;;;;25.30;15.90;;;;;;;14.92;68.94;97496.87;227210;1235;139378;-66
2022/09/27 08:50:29;;;;;;;48.40;34.80;;;;;;;15.08;68.74;97492.29;227174;1237;139481;-67
2022/09/27 08:55:41;;;;;;;20.90;13.30;;;;;;;15.25;68.54;97490.63;226106;1251;139139;-67
2022/09/27 09:00:54;;;;;;;25.80;16.40;;;;;;;15.40;68.13;97496.63;226238;1233;139347;-66
2022/09/27 09:06:06;;;;;;;29.00;19.90;;;;;;;15.48;67.67;97493.94;226495;1241;139113;-67
2022/09/27 09:17:18;;;;;;;31.50;18.70;;;;;;;15.59;67.25;97475.58;226101;1245;138842;-67
2022/09/27 09:23:28;;;;;;;27.30;15.90;;;;;;;15.76;67.20;97468.21;227385;1234;140335;-67
2022/09/27 09:28:56;;;;;;;25.90;15.00;;;;;;;15.96;67.15;97458.95;227444;1248;139296;-67
2022/09/27 09:34:09;;;;;;;24.10;13.40;;;;;;;16.14;66.95;97450.01;226215;1245;139681;-67
2022/09/27 09:39:48;;;;;;;21.30;12.70;;;;;;;16.30;66.98;97447.23;226641;1238;139324;-66
2022/09/27 09:45:30;;;;;;;17.80;11.30;;;;;;;16.45;66.67;97432.96;226291;1244;139257;-66
2022/09/27 09:50:41;;;;;;;21.20;12.20;;;;;;;16.57;66.53;97424.44;227197;1236;139144;-67
2022/09/27 09:56:03;;;;;;;15.50;10.50;;;;;;;16.70;66.33;97415.73;226391;1249;139383;-67
2022/09/27 10:01:17;;;;;;;16.90;10.10;;;;;;;16.83;66.12;97403.62;226458;1241;138948;-67
2022/09/27 10:06:23;;;;;;;22.60;12.90;;;;;;;16.96;65.86;97400.09;226195;1248;139845;-67
2022/09/27 10:11:39;;;;;;;20.10;10.80;;;;;;;17.06;65.79;97390.00;226357;1241;138853;-68
2022/09/27 10:17:01;;;;;;;12.20;9.10;;;;;;;17.22;65.61;97385.34;226454;1250;139129;-68
2022/09/27 10:22:17;;;;;;;13.50;9.30;;;;;;;17.40;65.76;97374.42;226693;1241;138286;-68
2022/09/27 10:27:24;;;;;;;12.10;8.50;;;;;;;17.62;65.47;97364.13;227448;1234;138901;-67
2022/09/27 10:32:35;;;;;;;10.10;6.90;;;;;;;17.78;65.12;97364.75;226208;1251;138749;-68
2022/09/27 10:38:28;;;;;;;10.10;6.80;;;;;;;17.98;64.92;97363.27;226629;1234;138750;-69
2022/09/27 10:43:38;;;;;;;9.90;6.30;;;;;;;18.09;64.52;97356.02;226449;1240;138831;-72
2022/09/27 10:49:18;;;;;;;7.90;6.60;;;;;;;18.11;64.13;97352.27;226175;1244;139048;-68
2022/09/27 10:54:28;;;;;;;9.40;5.70;;;;;;;18.18;63.75;97346.67;226535;1241;139085;-70
2022/09/27 10:59:40;;;;;;;13.20;6.60;;;;;;;18.22;63.65;97340.44;227429;1234;138996;-69
2022/09/27 11:05:28;;;;;;;11.30;5.50;;;;;;;18.28;63.64;97332.94;226485;1240;139048;-70
2022/09/27 11:10:35;;;;;;;9.20;5.50;;;;;;;18.33;63.48;97326.46;227312;1234;139440;-73
2022/09/27 11:15:58;;;;;;;11.20;6.90;;;;;;;18.50;63.65;97325.27;226616;1248;138776;-68
2022/09/27 11:21:25;;;;;;;9.70;5.60;;;;;;;18.63;63.58;97315.56;227434;1231;224802;-69
2022/09/27 11:26:44;;;;;;;8.30;5.80;;;;;;;18.75;63.54;97308.35;226290;1244;139417;-67
2022/09/27 11:32:05;;;;;;;6.70;5.60;;;;;;;18.85;63.32;97304.08;226282;1241;139743;-67
2022/09/27 11:37:18;;;;;;;9.20;6.60;;;;;;;18.98;63.22;97295.26;226634;1240;138782;-70
2022/09/27 11:42:39;;;;;;;8.20;6.10;;;;;;;19.11;62.82;97288.89;227453;1234;139701;-72
2022/09/27 11:48:03;;;;;;;6.80;6.00;;;;;;;19.20;62.59;97289.27;227126;1239;139326;-70
2022/09/27 11:53:20;;;;;;;8.50;5.80;;;;;;;19.32;62.56;97283.33;227382;1230;138764;-68
2022/09/27 11:58:42;;;;;;;6.20;4.70;;;;;;;19.42;62.35;97276.81;225992;1241;139706;-68
2022/09/27 12:04:09;;;;;;;6.80;4.60;;;;;;;19.48;62.12;97274.08;226173;1243;138405;-67
2022/09/27 12:09:18;;;;;;;7.10;5.10;;;;;;;19.49;61.91;97270.35;226619;1241;138775;-69
2022/09/27 12:14:45;;;;;;;8.90;5.20;;;;;;;19.50;61.56;97261.81;226263;1244;139388;-68
2022/09/27 12:20:02;;;;;;;9.50;4.50;;;;;;;19.55;61.56;97249.80;227487;1234;138435;-66
2022/09/27 12:25:19;;;;;;;4.70;3.50;;;;;;;19.58;61.04;97249.80;226595;1249;139216;-65
2022/09/27 12:30:43;;;;;;;5.70;3.20;;;;;;;19.57;60.43;97238.90;226408;1241;138908;-65
2022/09/27 12:36:00;;;;;;;4.60;3.00;;;;;;;19.56;60.06;97229.23;226295;1242;139664;-65
2022/09/27 12:41:23;;;;;;;5.40;2.70;;;;;;;19.58;59.98;97222.77;226436;1249;139099;-66
2022/09/27 12:47:06;;;;;;;8.90;3.40;;;;;;;19.63;59.56;97219.04;226347;1245;138925;-68
2022/09/27 12:52:13;;;;;;;3.60;2.60;;;;;;;19.69;59.07;97210.62;227364;1234;138932;-68
2022/09/27 12:57:44;;;;;;;6.50;2.90;;;;;;;19.72;58.53;97208.23;227455;1234;138566;-68
2022/09/27 13:03:00;;;;;;;9.20;3.90;;;;;;;19.76;57.99;97203.94;225885;1233;139843;-68
2022/09/27 13:08:34;;;;;;;7.10;2.80;;;;;;;19.86;57.94;97196.35;226469;1249;139027;-67
2022/09/27 13:13:38;;;;;;;4.30;2.30;;;;;;;19.96;57.85;97188.69;226669;1248;138596;-66
2022/09/27 13:19:00;;;;;;;2.80;2.50;;;;;;;20.00;57.55;97178.80;226348;1243;138695;-67
2022/09/27 13:24:36;;;;;;;5.50;2.80;;;;;;;20.09;57.15;97176.71;227462;1232;140114;-67
2022/09/27 13:29:42;;;;;;;4.10;2.80;;;;;;;20.14;56.58;97173.52;227511;1241;138308;-67
2022/09/27 13:34:56;;;;;;;9.00;3.50;;;;;;;20.15;56.05;97174.97;226618;1238;139033;-67
2022/09/27 13:40:14;;;;;;;6.40;3.30;;;;;;;20.07;55.53;97180.39;226066;1243;139381;-67
2022/09/27 13:45:32;;;;;;;5.40;3.30;;;;;;;19.93;55.04;97186.21;226477;1237;138678;-67
2022/09/27 13:50:45;;;;;;;3.40;2.00;;;;;;;19.79;54.96;97188.26;226147;1244;138679;-67
2022/09/27 13:55:51;;;;;;;5.30;2.70;;;;;;;19.69;54.65;97180.19;226433;1242;138847;-67
2022/09/27 14:01:33;;;;;;;10.50;7.40;;;;;;;19.74;56.59;97177.36;226217;1230;138226;-67
2022/09/27 14:06:43;;;;;;;11.50;3.50;;;;;;;19.84;57.35;97175.49;226325;1241;138904;-67
2022/09/27 14:11:56;;;;;;;5.20;3.90;;;;;;;19.83;56.37;97173.99;226359;1242;139091;-67
2022/09/27 14:17:00;;;;;;;4.50;3.10;;;;;;;19.78;55.94;97173.80;226383;1241;140157;-67
2022/09/27 14:22:14;;;;;;;5.00;2.30;;;;;;;19.69;55.74;97175.45;226646;1241;139925;-68
2022/09/27 14:27:34;;;;;;;6.30;2.20;;;;;;;19.60;55.73;97178.61;227301;1237;138829;-68
2022/09/27 14:33:02;;;;;;;5.40;2.90;;;;;;;19.49;55.75;97178.54;226159;1241;138628;-68
2022/09/27 14:38:19;;;;;;;4.30;2.50;;;;;;;19.36;55.97;97175.38;227043;1237;139303;-67
2022/09/27 14:43:48;;;;;;;4.60;2.50;;;;;;;19.38;56.88;97165.71;227071;1230;139153;-67
2022/09/27 14:48:51;;;;;;;3.90;2.30;;;;;;;19.46;57.09;97162.29;226206;1244;138676;-67
2022/09/27 14:53:59;;;;;;;6.80;2.70;;;;;;;19.46;56.84;97160.42;226152;1244;139167;-67
2022/09/27 14:59:10;;;;;;;3.60;2.40;;;;;;;19.50;57.14;97167.63;226480;1233;139235;-68
2022/09/27 15:04:14;;;;;;;3.20;2.70;;;;;;;19.55;57.16;97169.14;226621;1248;138777;-68
2022/09/27 15:09:18;;;;;;;4.50;3.20;;;;;;;19.55;57.10;97173.05;226387;1242;139642;-67
2022/09/27 15:14:22;;;;;;;5.50;2.60;;;;;;;19.50;56.92;97172.44;226422;1234;140832;-67
2022/09/27 15:19:27;;;;;;;3.80;2.50;;;;;;;19.48;57.02;97169.52;226377;1241;138790;-67
2022/09/27 15:25:17;;;;;;;3.30;2.60;;;;;;;19.43;57.00;97164.37;226552;1240;139498;-67
2022/09/27 15:30:27;;;;;;;3.30;2.50;;;;;;;19.34;56.90;97169.64;226452;1248;138762;-65
2022/09/27 15:35:34;;;;;;;3.30;2.70;;;;;;;19.34;57.21;97186.64;226379;1241;138582;-67
2022/09/27 15:41:03;;;;;;;6.50;2.70;;;;;;;19.33;57.13;97207.79;226136;1249;139140;-67
2022/09/27 15:46:22;;;;;;;7.50;3.10;;;;;;;19.11;57.11;97230.39;226461;1235;138828;-67
2022/09/27 15:51:42;;;;;;;5.50;2.20;;;;;;;18.77;57.41;97236.90;226613;1241;140628;-66
2022/09/27 15:56:51;;;;;;;4.10;2.20;;;;;;;18.43;57.67;97244.95;227424;1234;139645;-66
2022/09/27 16:02:02;;;;;;;3.80;2.30;;;;;;;18.26;58.48;97248.93;227360;1233;140549;-66
2022/09/27 16:07:12;;;;;;;2.90;1.80;;;;;;;18.27;59.44;97254.11;226372;1243;140269;-68
2022/09/27 16:12:15;;;;;;;3.30;2.40;;;;;;;18.29;59.36;97252.10;226147;1242;139767;-67
2022/09/27 16:17:18;;;;;;;2.30;1.80;;;;;;;17.96;58.57;97256.06;227337;1231;139776;-66
2022/09/27 16:22:21;;;;;;;4.20;2.00;;;;;;;17.54;58.77;97254.74;226472;1238;138794;-66
2022/09/27 16:27:26;;;;;;;3.50;1.80;;;;;;;17.10;58.78;97259.94;226545;1249;139940;-66
2022/09/27 16:32:29;;;;;;;2.20;1.70;;;;;;;16.73;59.16;97272.59;227431;1227;139463;-65
2022/09/27 16:37:33;;;;;;;2.80;1.80;;;;;;;16.37;59.39;97274.13;226238;1237;138366;-65
2022/09/27 16:42:37;;;;;;;3.00;1.70;;;;;;;16.08;59.55;97282.04;226306;1237;140587;-66
2022/09/27 16:47:40;;;;;;;2.60;1.80;;;;;;;15.89;60.10;97286.77;226474;1241;140283;-65
2022/09/27 16:52:48;;;;;;;2.50;1.70;;;;;;;15.80;60.54;97294.50;226168;1246;139043;-65
2022/09/27 16:57:51;;;;;;;3.40;1.70;;;;;;;15.72;60.77;97305.48;227434;1234;140695;-65
2022/09/27 17:02:54;;;;;;;2.10;1.70;;;;;;;15.64;61.09;97307.23;227404;1233;139787;-65
2022/09/27 17:07:58;;;;;;;2.60;1.80;;;;;;;15.57;61.39;97303.35;226635;1241;139310;-66
2022/09/27 17:13:01;;;;;;;3.40;1.80;;;;;;;15.48;61.46;97310.10;227321;1232;139439;-67
2022/09/27 17:18:04;;;;;;;2.90;2.20;;;;;;;15.40;61.55;97313.81;226389;1242;138701;-66
2022/09/27 17:23:07;;;;;;;4.70;3.00;;;;;;;15.35;61.67;97312.71;226435;1248;139850;-65
2022/09/27 17:28:10;;;;;;;7.80;3.90;;;;;;;15.33;62.04;97305.81;226586;1241;140337;-67
2022/09/27 17:33:14;;;;;;;9.90;4.40;;;;;;;15.34;62.36;97306.35;227382;1241;140327;-68
2022/09/27 17:38:16;;;;;;;11.90;7.50;;;;;;;15.34;62.62;97304.44;226166;1244;139818;-67
2022/09/27 17:43:19;;;;;;;8.80;5.90;;;;;;;15.32;62.89;97306.08;226313;1241;138903;-66
2022/09/27 17:53:44;;;;;;;12.40;6.00;;;;;;;15.27;63.02;97317.91;227286;1233;139220;-67
2022/09/27 17:58:50;;;;;;;8.00;5.40;;;;;;;15.25;63.30;97322.39;226227;1242;138576;-67
2022/09/27 18:03:58;;;;;;;8.20;6.50;;;;;;;15.24;63.50;97328.52;226297;1241;139570;-67
2022/09/27 18:09:01;;;;;;;12.30;6.70;;;;;;;15.24;63.44;97332.51;227233;1235;139489;-67
2022/09/27 18:14:05;;;;;;;9.10;6.70;;;;;;;15.28;63.72;97335.10;226316;1237;141634;-66
2022/09/27 18:19:14;;;;;;;10.00;6.00;;;;;;;15.28;63.78;97337.05;226260;1241;139346;-67
2022/09/27 18:24:17;;;;;;;8.50;6.10;;;;;;;15.26;63.74;97346.55;227126;1226;139101;-66
2022/09/27 18:29:21;;;;;;;72.90;47.60;;;;;;;15.22;63.64;97354.11;226146;1234;139846;-67
2022/09/27 18:34:24;;;;;;;10.50;5.60;;;;;;;15.18;63.73;97356.80;226297;1249;138784;-68
2022/09/27 18:39:27;;;;;;;8.30;5.70;;;;;;;15.12;63.52;97363.98;226688;1241;139206;-66
2022/09/27 18:44:31;;;;;;;9.30;5.70;;;;;;;15.08;63.64;97366.91;227364;1227;140075;-68
2022/09/27 18:49:34;;;;;;;7.60;5.90;;;;;;;15.07;63.85;97375.22;226548;1237;139819;-66
2022/09/27 18:54:39;;;;;;;9.10;6.40;;;;;;;15.05;63.97;97376.02;226325;1249;139374;-66
2022/09/27 18:59:44;;;;;;;9.80;7.30;;;;;;;15.01;64.05;97382.31;226391;1241;139731;-66
2022/09/27 19:04:47;;;;;;;8.90;6.80;;;;;;;14.98;64.14;97378.52;227430;1235;139227;-66
2022/09/27 19:09:50;;;;;;;11.10;7.00;;;;;;;14.93;64.21;97384.44;226457;1243;139675;-68
2022/09/27 19:14:54;;;;;;;7.80;6.50;;;;;;;14.85;64.17;97389.01;226556;1244;140165;-67
2022/09/27 19:19:57;;;;;;;8.50;6.90;;;;;;;14.81;64.28;97391.80;226184;1243;139272;-68
2022/09/27 19:25:00;;;;;;;9.90;7.80;;;;;;;14.79;64.45;97393.53;227323;1241;141207;-66
2022/09/27 19:30:04;;;;;;;10.70;8.00;;;;;;;14.76;64.51;97395.64;226452;1241;138742;-67
2022/09/27 19:35:07;;;;;;;12.30;8.50;;;;;;;14.75;64.78;97404.73;227281;1234;139130;-67
2022/09/27 19:40:11;;;;;;;14.80;8.90;;;;;;;14.74;64.90;97402.63;226330;1242;140500;-68
2022/09/27 19:45:14;;;;;;;13.00;9.00;;;;;;;14.71;64.87;97402.80;226190;1236;139309;-66
2022/09/27 19:50:17;;;;;;;13.00;8.90;;;;;;;14.69;64.88;97398.75;226289;1241;139820;-67
2022/09/27 19:55:20;;;;;;;13.60;8.90;;;;;;;14.68;65.03;97397.08;227303;1234;140988;-67
2022/09/27 20:00:23;;;;;;;13.90;8.60;;;;;;;14.72;65.25;97395.75;226237;1249;139444;-67
2022/09/27 20:05:26;;;;;;;12.90;8.50;;;;;;;14.76;65.40;97397.67;227350;1234;139437;-67
2022/09/27 20:10:29;;;;;;;11.30;7.90;;;;;;;14.84;65.58;97403.02;226595;1233;140308;-66
2022/09/27 20:15:32;;;;;;;11.90;7.90;;;;;;;14.90;65.52;97404.88;226542;1241;140629;-66
2022/09/27 20:20:35;;;;;;;12.00;7.90;;;;;;;14.84;65.24;97395.87;226269;1241;140609;-64
2022/09/27 20:25:39;;;;;;;13.60;7.40;;;;;;;14.76;65.20;97391.05;226219;1241;139263;-65
2022/09/27 20:31:01;;;;;;;11.50;7.10;;;;;;;14.70;65.28;97387.00;226257;1250;140580;-65
2022/09/27 20:36:04;;;;;;;11.90;8.10;;;;;;;14.76;65.67;97392.85;226190;1250;140275;-65
2022/09/27 20:41:08;;;;;;;14.20;8.10;;;;;;;14.81;65.60;97387.62;226421;1234;138880;-65
2022/09/27 20:46:17;;;;;;;14.60;8.80;;;;;;;14.86;65.73;97391.07;226275;1241;139972;-65
2022/09/27 20:51:21;;;;;;;13.10;8.60;;;;;;;14.85;65.51;97397.52;226160;1241;140150;-65
2022/09/27 20:56:28;;;;;;;13.40;8.00;;;;;;;14.83;65.63;97396.30;226241;1244;140316;-65
2022/09/27 21:01:32;;;;;;;14.40;8.60;;;;;;;14.78;65.36;97394.80;227383;1241;140417;-66
2022/09/27 21:06:35;;;;;;;13.00;8.60;;;;;;;14.74;65.35;97394.83;227260;1241;140200;-66
2022/09/27 21:11:38;;;;;;;12.90;7.90;;;;;;;14.74;65.48;97395.72;226255;1244;140449;-65
2022/09/27 21:16:41;;;;;;;11.70;8.50;;;;;;;14.72;65.57;97395.71;226404;1242;139169;-66
2022/09/27 21:21:44;;;;;;;12.80;8.90;;;;;;;14.69;65.65;97403.53;226457;1244;139548;-66
2022/09/27 21:26:47;;;;;;;12.70;8.30;;;;;;;14.73;65.92;97406.93;227351;1241;139925;-66
2022/09/27 21:31:50;;;;;;;12.00;8.40;;;;;;;14.75;65.71;97410.60;226209;1243;139446;-65
2022/09/27 21:36:53;;;;;;;12.00;8.20;;;;;;;14.72;65.57;97405.25;226232;1242;140724;-66
2022/09/27 21:41:55;;;;;;;12.50;8.30;;;;;;;14.64;65.48;97406.03;226258;1248;139873;-67
2022/09/27 21:46:58;;;;;;;12.30;7.90;;;;;;;14.61;65.41;97397.95;227288;1242;139840;-66
2022/09/27 21:52:01;;;;;;;14.40;8.20;;;;;;;14.59;65.41;97392.11;227545;1228;140842;-66
2022/09/27 21:57:05;;;;;;;14.40;8.90;;;;;;;14.55;65.56;97389.66;227436;1233;139819;-66
2022/09/27 22:02:07;;;;;;;14.30;9.20;;;;;;;14.53;65.68;97378.24;226281;1250;139473;-66
2022/09/27 22:07:11;;;;;;;15.80;9.60;;;;;;;14.50;65.75;97372.35;226171;1241;139447;-67
2022/09/27 22:12:14;;;;;;;13.10;9.20;;;;;;;14.44;65.75;97374.15;226115;1243;140180;-67
2022/09/27 22:17:16;;;;;;;16.20;9.80;;;;;;;14.41;65.77;97374.11;226173;1248;139134;-65
2022/09/27 22:22:19;;;;;;;13.30;8.80;;;;;;;14.45;65.72;97379.48;226495;1244;141028;-67
2022/09/27 22:27:22;;;;;;;14.20;9.70;;;;;;;14.46;65.90;97385.10;226691;1243;139963;-66
2022/09/27 22:32:25;;;;;;;16.40;10.10;;;;;;;14.44;65.82;97389.18;226380;1239;140094;-66
2022/09/27 22:37:28;;;;;;;15.90;10.60;;;;;;;14.42;65.88;97394.55;227366;1242;139142;-66
2022/09/27 22:42:31;;;;;;;15.50;9.90;;;;;;;14.37;65.92;97390.08;226464;1244;139561;-66
2022/09/27 22:47:34;;;;;;;14.30;9.90;;;;;;;14.33;66.14;97395.46;226564;1242;138895;-67
2022/09/27 22:52:37;;;;;;;17.00;10.10;;;;;;;14.34;66.39;97394.84;227467;1234;138951;-66
2022/09/27 22:57:40;;;;;;;15.10;11.30;;;;;;;14.37;66.32;97393.98;226577;1244;140904;-67
2022/09/27 23:02:43;;;;;;;17.30;10.10;;;;;;;14.45;66.35;97386.74;226253;1250;139609;-66
2022/09/27 23:07:47;;;;;;;16.60;10.70;;;;;;;14.46;66.41;97389.84;226312;1249;138877;-66
2022/09/27 23:12:53;;;;;;;14.70;10.50;;;;;;;14.49;66.37;97382.84;226243;1249;139249;-66
2022/09/27 23:17:56;;;;;;;16.20;10.80;;;;;;;14.42;66.33;97379.23;226281;1249;139852;-67
2022/09/27 23:22:59;;;;;;;17.10;11.30;;;;;;;14.36;66.23;97378.36;226303;1239;139273;-67
2022/09/27 23:28:03;;;;;;;14.20;10.00;;;;;;;14.36;66.44;97373.98;227415;1234;139162;-64
2022/09/27 23:33:07;;;;;;;16.60;9.80;;;;;;;14.38;66.36;97372.52;226213;1248;140640;-66
2022/09/27 23:38:10;;;;;;;14.40;10.60;;;;;;;14.42;66.41;97374.59;226201;1250;139358;-65
2022/09/27 23:43:12;;;;;;;17.10;11.20;;;;;;;14.45;66.51;97384.42;226412;1239;139806;-67
2022/09/27 23:48:16;;;;;;;18.80;10.90;;;;;;;14.52;66.65;97394.86;226291;1241;139503;-66
2022/09/27 23:53:20;;;;;;;17.30;10.60;;;;;;;14.57;66.43;97395.39;227322;1229;140444;-68